This is the latest recevied weather packets stored in our database for station/object N3FU-13. If no packets are shown the sender has not sent any weather packets the latest 1 day(s).
| Time | Temp. | Humidity | Pressure | Rain* | Wind** | Luminosity | Snow |
|---|---|---|---|---|---|---|---|
| 1778021267 | 28.89° C | 69% | 1014.1 hPa | 0 mm | 1.34 m/s, 207° | - | - |
| 1778020924 | 28.89° C | 69% | 1014.1 hPa | 0 mm | 1.34 m/s, 207° | - | - |
| 1778020024 | 29.44° C | 67% | 1014.1 hPa | 0 mm | 1.34 m/s, 226° | - | - |
| 1778019124 | 29.44° C | 66% | 1014.1 hPa | 0 mm | 1.34 m/s, 227° | - | - |
| 1778018801 | 30° C | 65% | 1014.1 hPa | 0 mm | 1.34 m/s, 240° | - | - |
| 1778018224 | 30° C | 65% | 1014.1 hPa | 0 mm | 1.34 m/s, 240° | - | - |
| 1778017324 | 30.56° C | 63% | 1014.2 hPa | 0 mm | 1.34 m/s, 265° | - | - |
| 1778016424 | 31.11° C | 62% | 1014.1 hPa | 0 mm | 1.34 m/s, 271° | - | - |
| 1778015524 | 31.11° C | 61% | 1013.9 hPa | 0 mm | 0.89 m/s, 273° | - | - |
| 1778014624 | 31.67° C | 60% | 1013.7 hPa | 0 mm | 1.34 m/s, 235° | - | - |
| 1778014276 | 31.67° C | 60% | 1013.9 hPa | 0 mm | 1.79 m/s, 202° | - | - |
| 1778013724 | 31.67° C | 60% | 1013.9 hPa | 0 mm | 1.79 m/s, 202° | - | - |
| 1778013327 | 31.67° C | 61% | 1014.2 hPa | 0 mm | 1.34 m/s, 263° | - | - |
| 1778012824 | 31.67° C | 61% | 1014.2 hPa | 0 mm | 1.34 m/s, 263° | - | - |
| 1778011927 | 31.67° C | 61% | 1014.2 hPa | 0 mm | 1.34 m/s, 211° | - | - |
| 1778011024 | 32.22° C | 61% | 1014.3 hPa | 0 mm | 1.34 m/s, 245° | - | - |
| 1778010124 | 31.67° C | 60% | 1014.3 hPa | 0 mm | 1.34 m/s, 200° | - | - |
| 1778009501 | 31.11° C | 62% | 1014.3 hPa | 0 mm | 1.34 m/s, 180° | - | - |
| 1778009224 | 31.11° C | 62% | 1014.3 hPa | 0 mm | 1.34 m/s, 180° | - | - |
| 1778008324 | 31.11° C | 61% | 1014.4 hPa | 0 mm | 1.34 m/s, 216° | - | - |
| 1778007424 | 32.78° C | 58% | 1014.4 hPa | 0 mm | 1.79 m/s, 192° | - | - |
| 1778006524 | 33.89° C | 50% | 1014.5 hPa | 0 mm | 0.89 m/s, 150° | - | - |
| 1778005624 | 34.44° C | 47% | 1014.6 hPa | 0 mm | 0.89 m/s, 196° | - | - |
| 1778004724 | 33.89° C | 48% | 1014.8 hPa | 0 mm | 0.89 m/s, 202° | - | - |
| 1778003824 | 32.78° C | 52% | 1015.1 hPa | 0 mm | 0.89 m/s, 182° | - | - |
* Rain latest hour (hover to see other rain measurements)
** Current wind speed in m/s (hover to see current wind gust speed)